Time;durP1;ratioP1;P1;durP2;ratioP2;P2;SDS_P1;SDS_P2;PMS_P1;PMS_P2;Temp;Humidity;BMP_temperature;BMP_pressure;BME280_temperature;BME280_humidity;BME280_pressure;Samples;Min_cycle;Max_cycle;Signal;HPM_P1;HPM_P2
2023/10/29 00:02:17;;;;;;;2.42;1.60;;;8.70;99.90;;;;;;4982050;28;20042;-72
2023/10/29 00:04:43;;;;;;;2.72;1.35;;;8.80;99.90;;;;;;4982510;28;20125;-72
2023/10/29 00:07:08;;;;;;;2.75;1.23;;;8.80;99.90;;;;;;4979460;28;20379;-71
2023/10/29 00:09:34;;;;;;;4.40;1.58;;;8.80;99.90;;;;;;4980672;28;20118;-72
2023/10/29 00:12:00;;;;;;;4.70;1.55;;;8.80;99.90;;;;;;4988200;28;20034;-72
2023/10/29 00:14:25;;;;;;;3.13;1.30;;;8.80;99.90;;;;;;4984499;28;20094;-72
2023/10/29 00:16:51;;;;;;;3.95;1.48;;;8.80;99.90;;;;;;4986724;28;20035;-72
2023/10/29 00:19:17;;;;;;;2.85;1.83;;;8.80;99.90;;;;;;4988707;28;20038;-71
2023/10/29 00:21:42;;;;;;;3.25;1.73;;;8.90;99.90;;;;;;4983032;28;20486;-69
2023/10/29 00:24:08;;;;;;;1.85;1.38;;;8.80;99.90;;;;;;4978876;28;20050;-69
2023/10/29 00:26:34;;;;;;;3.50;1.65;;;8.90;99.90;;;;;;4988139;28;21051;-73
2023/10/29 00:29:00;;;;;;;2.72;1.42;;;8.90;99.90;;;;;;4987144;28;20125;-70
2023/10/29 00:31:26;;;;;;;2.85;1.60;;;9.00;99.90;;;;;;4993292;28;20380;-70
2023/10/29 00:33:51;;;;;;;2.55;1.48;;;9.00;99.90;;;;;;4990211;28;20061;-70
2023/10/29 00:36:17;;;;;;;2.33;1.48;;;9.00;99.90;;;;;;4989224;28;20145;-70
2023/10/29 00:38:42;;;;;;;2.65;1.17;;;9.10;99.90;;;;;;4983943;28;20047;-71
2023/10/29 00:41:08;;;;;;;2.17;1.10;;;9.10;99.90;;;;;;4989808;28;20023;-71
2023/10/29 00:43:43;;;;;;;2.88;1.60;;;9.10;99.90;;;;;;4987228;28;20030;-70
2023/10/29 00:46:10;;;;;;;2.13;1.40;;;9.10;99.90;;;;;;4989832;28;20026;-70
2023/10/29 00:48:37;;;;;;;2.92;1.50;;;9.20;99.90;;;;;;4986555;28;20547;-70
2023/10/29 00:51:03;;;;;;;2.15;1.38;;;9.20;99.90;;;;;;4987788;28;20036;-70
2023/10/29 00:53:29;;;;;;;2.83;1.52;;;9.20;99.90;;;;;;4988868;28;20030;-70
2023/10/29 00:55:54;;;;;;;3.00;1.50;;;9.20;99.90;;;;;;4987960;28;20094;-69
2023/10/29 00:58:23;;;;;;;2.28;1.38;;;9.30;99.90;;;;;;4983504;28;20526;-71
2023/10/29 01:00:49;;;;;;;2.25;1.23;;;9.30;99.90;;;;;;4987985;28;20680;-69
2023/10/29 01:03:16;;;;;;;1.80;1.20;;;9.30;99.90;;;;;;4990248;28;20120;-69
2023/10/29 01:05:41;;;;;;;3.20;1.60;;;9.30;99.90;;;;;;4985945;28;20042;-71
2023/10/29 01:08:07;;;;;;;2.95;1.55;;;9.30;99.90;;;;;;4987717;28;20034;-70
2023/10/29 01:10:33;;;;;;;3.80;1.30;;;9.40;99.90;;;;;;4990807;28;20040;-70
2023/10/29 01:12:58;;;;;;;3.55;1.42;;;9.40;99.90;;;;;;4980494;28;20046;-70
2023/10/29 01:15:24;;;;;;;2.90;1.35;;;9.40;99.90;;;;;;4984858;28;20489;-71
2023/10/29 01:17:50;;;;;;;3.50;1.75;;;9.40;99.90;;;;;;4988045;28;20053;-70
2023/10/29 01:20:15;;;;;;;3.38;1.75;;;9.40;99.90;;;;;;4988406;28;20045;-69
2023/10/29 01:22:41;;;;;;;2.33;1.48;;;9.50;99.90;;;;;;4989502;28;20503;-70
2023/10/29 01:25:09;;;;;;;2.63;1.42;;;9.50;99.90;;;;;;4987848;28;20067;-70
2023/10/29 01:27:36;;;;;;;2.17;1.40;;;9.50;99.90;;;;;;4990010;28;20094;-70
2023/10/29 01:30:02;;;;;;;2.53;1.50;;;9.50;99.90;;;;;;4984391;28;20027;-70
2023/10/29 01:32:27;;;;;;;2.45;1.20;;;9.50;99.90;;;;;;4989980;28;21995;-70
2023/10/29 01:34:53;;;;;;;1.58;1.20;;;9.50;99.90;;;;;;4988929;28;20061;-71
2023/10/29 01:37:18;;;;;;;2.80;1.33;;;9.50;99.90;;;;;;4988213;28;20092;-70
2023/10/29 01:39:44;;;;;;;1.58;1.35;;;9.60;99.90;;;;;;4982636;28;20037;-69
2023/10/29 01:42:09;;;;;;;2.83;1.67;;;9.60;99.90;;;;;;4987500;28;20054;-69
2023/10/29 01:44:34;;;;;;;2.15;1.10;;;9.60;99.90;;;;;;4984787;28;20038;-69
2023/10/29 01:47:00;;;;;;;2.05;1.30;;;9.60;99.90;;;;;;4986196;28;20054;-69
2023/10/29 01:49:25;;;;;;;4.25;1.50;;;9.60;99.90;;;;;;4988566;28;20060;-70
2023/10/29 01:51:51;;;;;;;3.58;1.25;;;9.60;99.90;;;;;;4985869;28;20038;-71
2023/10/29 01:54:16;;;;;;;3.35;1.35;;;9.60;99.90;;;;;;4986405;28;20493;-73
2023/10/29 01:56:42;;;;;;;3.03;1.60;;;9.60;99.90;;;;;;4989674;28;20080;-71
2023/10/29 01:59:07;;;;;;;2.72;1.60;;;9.60;99.90;;;;;;4981908;28;20042;-69
2023/10/29 02:01:33;;;;;;;1.27;1.00;;;9.60;99.90;;;;;;4989161;28;20030;-71
2023/10/29 02:03:59;;;;;;;3.47;1.48;;;9.60;99.90;;;;;;4984595;28;20041;-70
2023/10/29 02:06:24;;;;;;;1.75;1.15;;;9.60;99.90;;;;;;4988562;28;20118;-70
2023/10/29 02:08:50;;;;;;;3.97;1.38;;;9.70;99.90;;;;;;4986147;28;20035;-70
2023/10/29 02:11:15;;;;;;;2.03;1.20;;;9.70;99.90;;;;;;4988242;28;20471;-70
2023/10/29 02:13:41;;;;;;;1.35;0.98;;;9.70;99.90;;;;;;4981897;28;20039;-70
2023/10/29 02:16:08;;;;;;;3.47;1.63;;;9.80;99.90;;;;;;4987151;28;20423;-70
2023/10/29 02:18:34;;;;;;;1.85;1.25;;;9.80;99.90;;;;;;4988094;28;20053;-70
2023/10/29 02:21:00;;;;;;;1.20;0.93;;;9.80;99.90;;;;;;4985230;28;20031;-70
2023/10/29 02:23:25;;;;;;;2.63;1.23;;;9.80;99.90;;;;;;4984332;28;20534;-71
2023/10/29 02:25:51;;;;;;;1.63;1.02;;;9.80;99.90;;;;;;4991539;28;20141;-70
2023/10/29 02:28:16;;;;;;;1.42;1.05;;;9.90;99.90;;;;;;4984386;28;20035;-70
2023/10/29 02:30:41;;;;;;;1.92;1.10;;;9.90;99.90;;;;;;4987387;28;20038;-70
2023/10/29 02:33:07;;;;;;;1.65;1.10;;;9.90;99.90;;;;;;4985667;28;20508;-70
2023/10/29 02:35:33;;;;;;;1.83;1.08;;;9.90;99.90;;;;;;4988502;28;20042;-70
2023/10/29 02:37:58;;;;;;;2.33;1.02;;;9.90;99.90;;;;;;4983542;28;20031;-69
2023/10/29 02:40:24;;;;;;;2.50;1.30;;;9.90;99.90;;;;;;4989165;28;20038;-70
2023/10/29 02:42:49;;;;;;;1.90;0.95;;;9.90;99.90;;;;;;4981783;28;20030;-70
2023/10/29 02:45:15;;;;;;;1.38;1.08;;;10.00;99.90;;;;;;4986218;28;20038;-69
2023/10/29 02:47:40;;;;;;;2.47;1.10;;;10.00;99.90;;;;;;4986642;28;20096;-72
2023/10/29 02:50:06;;;;;;;2.00;1.00;;;10.00;99.90;;;;;;4988315;28;20053;-71
2023/10/29 02:52:31;;;;;;;1.27;1.00;;;10.10;99.90;;;;;;4986734;28;20069;-70
2023/10/29 02:54:57;;;;;;;1.40;1.00;;;10.00;99.90;;;;;;4986174;28;20031;-70
2023/10/29 02:57:23;;;;;;;2.28;1.25;;;10.10;99.90;;;;;;4982725;28;20035;-70
2023/10/29 02:59:49;;;;;;;1.52;0.82;;;10.10;99.90;;;;;;4983728;28;20431;-70
2023/10/29 03:02:14;;;;;;;1.48;1.00;;;10.10;99.90;;;;;;4987840;28;20070;-70
2023/10/29 03:04:40;;;;;;;1.95;0.82;;;10.10;99.90;;;;;;4986779;28;20034;-70
2023/10/29 03:07:05;;;;;;;1.70;1.17;;;10.10;99.90;;;;;;4988349;28;20038;-71
2023/10/29 03:09:31;;;;;;;2.00;1.02;;;10.10;99.90;;;;;;4988640;28;20034;-70
2023/10/29 03:11:56;;;;;;;0.80;0.80;;;10.10;99.90;;;;;;4984661;28;20046;-70
2023/10/29 03:14:22;;;;;;;1.17;0.80;;;10.10;99.90;;;;;;4985777;28;20382;-70
2023/10/29 03:16:47;;;;;;;1.70;1.10;;;10.10;99.90;;;;;;4986357;28;20022;-69
2023/10/29 03:19:13;;;;;;;1.67;1.00;;;10.20;99.90;;;;;;4989424;28;20165;-70
2023/10/29 03:21:38;;;;;;;1.15;0.95;;;10.20;99.90;;;;;;4988946;28;20022;-70
2023/10/29 03:24:04;;;;;;;2.03;1.30;;;10.20;99.90;;;;;;4985147;28;20160;-70
2023/10/29 03:26:30;;;;;;;1.55;1.00;;;10.20;99.90;;;;;;4982724;28;20050;-69
2023/10/29 03:28:55;;;;;;;1.60;1.00;;;10.20;99.90;;;;;;4980714;28;20030;-72
2023/10/29 03:31:21;;;;;;;1.70;1.00;;;10.20;99.90;;;;;;4986107;28;20038;-69
2023/10/29 03:33:47;;;;;;;0.80;0.77;;;10.30;99.90;;;;;;4985699;28;20038;-70
2023/10/29 03:36:13;;;;;;;1.00;0.70;;;10.30;99.90;;;;;;4983722;28;20030;-69
2023/10/29 03:38:39;;;;;;;1.52;0.80;;;10.30;99.90;;;;;;4978383;28;20027;-70
2023/10/29 03:41:04;;;;;;;1.30;0.90;;;10.30;99.90;;;;;;4984798;28;20473;-71
2023/10/29 03:43:30;;;;;;;1.10;0.77;;;10.30;99.90;;;;;;4976359;28;20038;-70
2023/10/29 03:45:55;;;;;;;1.23;0.80;;;10.30;99.90;;;;;;4985087;28;20034;-71
2023/10/29 03:48:20;;;;;;;1.65;0.80;;;10.40;99.90;;;;;;4988592;28;20097;-69
2023/10/29 03:50:46;;;;;;;1.92;0.75;;;10.40;99.90;;;;;;4985176;28;20033;-69
2023/10/29 03:53:11;;;;;;;1.40;0.65;;;10.40;99.90;;;;;;4988219;28;20403;-70
2023/10/29 03:55:37;;;;;;;2.08;0.85;;;10.40;99.90;;;;;;4988571;28;20122;-70
2023/10/29 03:58:04;;;;;;;0.98;0.77;;;10.50;99.90;;;;;;4982578;28;20065;-72
2023/10/29 04:00:29;;;;;;;0.90;0.80;;;10.50;99.90;;;;;;4986721;28;20034;-72
2023/10/29 04:02:55;;;;;;;2.00;0.80;;;10.50;99.90;;;;;;4983128;28;20038;-70
2023/10/29 04:05:21;;;;;;;0.93;0.82;;;10.60;99.90;;;;;;4984226;28;20136;-69
2023/10/29 04:07:46;;;;;;;2.17;0.90;;;10.60;99.90;;;;;;4985533;28;20451;-70
2023/10/29 04:10:12;;;;;;;1.05;0.70;;;10.60;99.90;;;;;;4985418;28;20034;-69
2023/10/29 04:12:38;;;;;;;1.10;0.65;;;10.60;99.90;;;;;;4981747;28;20045;-71
2023/10/29 04:15:04;;;;;;;1.13;0.70;;;10.60;99.90;;;;;;4983384;28;20037;-69
2023/10/29 04:17:30;;;;;;;1.30;0.77;;;10.70;99.90;;;;;;4987969;28;20042;-71
2023/10/29 04:19:56;;;;;;;1.17;0.70;;;10.80;99.90;;;;;;4984003;28;20030;-70
2023/10/29 04:22:22;;;;;;;1.30;0.75;;;10.80;99.90;;;;;;4988421;28;20046;-72
2023/10/29 04:24:48;;;;;;;1.38;0.68;;;10.80;99.90;;;;;;4984540;28;20085;-69
2023/10/29 04:27:14;;;;;;;1.20;0.77;;;10.80;99.90;;;;;;4986003;28;20057;-70
2023/10/29 04:29:39;;;;;;;1.13;0.75;;;10.80;99.90;;;;;;4985063;28;20049;-70
2023/10/29 04:32:05;;;;;;;1.20;0.75;;;10.80;99.90;;;;;;4989494;28;20950;-69
2023/10/29 04:34:31;;;;;;;1.17;0.70;;;10.90;99.90;;;;;;4988888;28;20527;-70
2023/10/29 04:36:56;;;;;;;1.33;0.98;;;10.80;99.90;;;;;;4983057;28;20205;-69
2023/10/29 04:39:21;;;;;;;1.55;0.80;;;10.90;99.90;;;;;;4986833;28;20130;-71
2023/10/29 04:41:47;;;;;;;1.27;0.80;;;10.90;99.90;;;;;;4982276;28;20376;-70
2023/10/29 04:44:14;;;;;;;1.05;0.55;;;11.00;99.90;;;;;;4983043;28;20088;-70
2023/10/29 04:46:39;;;;;;;1.77;1.13;;;11.00;99.90;;;;;;4988528;28;20034;-70
2023/10/29 04:49:05;;;;;;;0.75;0.63;;;10.90;99.90;;;;;;4988282;28;20038;-71
2023/10/29 04:51:30;;;;;;;3.30;0.60;;;11.00;99.90;;;;;;4989467;28;20041;-70
2023/10/29 04:53:56;;;;;;;1.10;0.60;;;10.90;99.90;;;;;;4986566;28;20038;-68
2023/10/29 04:56:22;;;;;;;1.70;0.80;;;11.00;99.90;;;;;;4987565;28;20475;-69
2023/10/29 04:58:47;;;;;;;0.95;0.82;;;11.10;99.90;;;;;;4979697;28;20061;-69
2023/10/29 05:01:17;;;;;;;0.70;0.60;;;11.10;99.90;;;;;;4985074;28;20367;-71
2023/10/29 05:03:46;;;;;;;0.73;0.35;;;11.10;99.90;;;;;;4984464;28;20084;-70
2023/10/29 05:06:21;;;;;;;1.33;0.65;;;11.20;99.90;;;;;;4985964;28;20045;-70
2023/10/29 05:08:47;;;;;;;2.42;0.85;;;11.10;99.90;;;;;;4985567;28;20133;-70
2023/10/29 05:11:13;;;;;;;1.02;0.65;;;11.10;99.90;;;;;;4984118;28;20045;-69
2023/10/29 05:13:39;;;;;;;1.38;0.73;;;11.10;99.90;;;;;;4981410;28;20383;-70
2023/10/29 05:16:05;;;;;;;1.05;0.63;;;11.10;99.90;;;;;;4990769;28;20126;-69
2023/10/29 05:18:31;;;;;;;0.77;0.65;;;11.10;99.90;;;;;;4992608;28;20172;-70
2023/10/29 05:20:56;;;;;;;0.93;0.80;;;11.20;99.90;;;;;;4991615;28;20034;-72
2023/10/29 05:23:22;;;;;;;1.08;0.55;;;11.20;99.90;;;;;;4990878;28;20114;-70
2023/10/29 05:25:47;;;;;;;1.35;0.85;;;11.30;99.90;;;;;;4991044;28;20066;-70
2023/10/29 05:28:13;;;;;;;0.90;0.57;;;11.30;99.90;;;;;;4979615;28;20514;-67
2023/10/29 05:30:39;;;;;;;0.57;0.50;;;11.40;99.90;;;;;;4986408;28;20035;-68
2023/10/29 05:33:04;;;;;;;2.13;0.70;;;11.30;99.90;;;;;;4986074;28;20034;-67
2023/10/29 05:35:30;;;;;;;3.95;0.73;;;11.30;99.90;;;;;;4984793;28;20480;-67
2023/10/29 05:37:55;;;;;;;1.42;0.50;;;11.40;99.90;;;;;;4988244;28;20034;-69
2023/10/29 05:40:21;;;;;;;1.00;0.57;;;11.40;99.90;;;;;;4987653;28;20034;-67
2023/10/29 05:42:46;;;;;;;1.90;0.77;;;11.30;99.90;;;;;;4985304;28;20030;-67
2023/10/29 05:45:12;;;;;;;1.17;0.63;;;11.30;99.90;;;;;;4987569;28;20036;-67
2023/10/29 05:47:37;;;;;;;1.25;0.55;;;11.30;99.90;;;;;;4976353;28;20042;-66
2023/10/29 05:50:04;;;;;;;1.50;0.60;;;11.40;99.90;;;;;;4985400;28;20109;-68
2023/10/29 05:52:30;;;;;;;0.75;0.50;;;11.40;99.90;;;;;;4985986;28;20023;-68
2023/10/29 05:54:56;;;;;;;0.77;0.52;;;11.30;99.90;;;;;;4989520;28;20030;-68
2023/10/29 05:57:21;;;;;;;0.88;0.50;;;11.40;99.90;;;;;;4982459;28;20041;-67
2023/10/29 05:59:47;;;;;;;1.60;0.80;;;11.40;99.90;;;;;;4986379;28;20038;-67
2023/10/29 06:02:12;;;;;;;0.80;0.60;;;11.40;99.90;;;;;;4985488;28;20046;-66
2023/10/29 06:04:38;;;;;;;0.68;0.40;;;11.40;99.90;;;;;;4990788;28;20100;-67
2023/10/29 06:07:04;;;;;;;3.35;0.65;;;11.40;99.80;;;;;;4987826;28;20502;-66
2023/10/29 06:09:29;;;;;;;2.67;0.50;;;11.40;99.90;;;;;;4986395;28;20189;-66
2023/10/29 06:11:54;;;;;;;0.70;0.50;;;11.40;99.90;;;;;;4984688;28;20105;-67
2023/10/29 06:14:22;;;;;;;1.40;0.73;;;11.40;99.90;;;;;;4984389;28;21388;-68
2023/10/29 06:16:48;;;;;;;0.85;0.55;;;11.40;99.90;;;;;;4987864;28;20030;-67
2023/10/29 06:19:13;;;;;;;0.52;0.45;;;11.40;99.90;;;;;;4989191;28;20065;-66
2023/10/29 06:21:39;;;;;;;2.03;0.80;;;11.40;99.90;;;;;;4986708;28;20113;-66
2023/10/29 06:24:06;;;;;;;1.15;0.55;;;11.30;99.90;;;;;;4986282;28;20027;-66
2023/10/29 06:26:31;;;;;;;1.15;0.60;;;11.40;99.90;;;;;;4984828;28;20105;-68
2023/10/29 06:28:57;;;;;;;0.98;0.80;;;11.40;99.70;;;;;;4984870;28;20034;-66
2023/10/29 06:31:33;;;;;;;2.08;0.50;;;11.40;99.70;;;;;;4987903;28;20042;-66
2023/10/29 06:33:58;;;;;;;0.43;0.43;;;11.30;99.70;;;;;;4984250;28;20070;-66
2023/10/29 06:36:24;;;;;;;0.70;0.50;;;11.40;99.60;;;;;;4985737;28;20038;-66
2023/10/29 06:38:49;;;;;;;0.90;0.52;;;11.40;99.60;;;;;;4984559;28;20436;-66
2023/10/29 06:41:15;;;;;;;1.15;0.68;;;11.50;99.50;;;;;;4986583;28;20045;-66
2023/10/29 06:43:40;;;;;;;0.60;0.52;;;11.40;99.50;;;;;;4987379;28;20048;-66
2023/10/29 06:46:06;;;;;;;0.60;0.40;;;11.40;99.50;;;;;;4987803;28;20034;-67
2023/10/29 06:48:31;;;;;;;0.47;0.40;;;11.40;99.50;;;;;;4987000;28;20038;-66
2023/10/29 06:50:57;;;;;;;0.85;0.40;;;11.40;99.50;;;;;;4985998;28;20386;-67
2023/10/29 06:53:22;;;;;;;1.83;0.47;;;11.40;99.50;;;;;;4987090;28;20042;-66
2023/10/29 06:55:47;;;;;;;0.43;0.43;;;11.40;99.60;;;;;;4987458;28;20033;-67
2023/10/29 06:58:13;;;;;;;1.75;0.50;;;11.40;99.50;;;;;;4984270;28;20061;-67
2023/10/29 07:00:39;;;;;;;0.77;0.60;;;11.40;99.50;;;;;;4986733;28;20042;-66
2023/10/29 07:03:05;;;;;;;1.63;0.63;;;11.40;99.50;;;;;;4988170;28;20023;-66
2023/10/29 07:05:31;;;;;;;0.95;0.60;;;11.40;99.50;;;;;;4987261;28;20030;-66
2023/10/29 07:07:57;;;;;;;1.52;0.77;;;11.30;99.60;;;;;;4987337;28;20043;-67
2023/10/29 07:10:23;;;;;;;0.88;0.45;;;11.40;99.60;;;;;;4986238;28;20526;-67
2023/10/29 07:12:48;;;;;;;1.13;0.70;;;11.40;99.60;;;;;;4984505;28;20034;-66
2023/10/29 07:15:14;;;;;;;0.65;0.57;;;11.50;99.40;;;;;;4984566;28;20027;-66
2023/10/29 07:17:40;;;;;;;1.58;0.47;;;11.40;99.40;;;;;;4987564;28;20057;-66
2023/10/29 07:20:06;;;;;;;1.33;0.60;;;11.50;99.40;;;;;;4985590;28;20069;-67
2023/10/29 07:22:31;;;;;;;0.50;0.50;;;11.50;99.40;;;;;;4988065;28;20022;-66
2023/10/29 07:24:57;;;;;;;0.57;0.57;;;11.50;99.30;;;;;;4987588;28;20058;-66
2023/10/29 07:27:23;;;;;;;1.33;0.50;;;11.50;99.40;;;;;;4983165;28;20506;-66
2023/10/29 07:29:48;;;;;;;0.90;0.70;;;11.50;99.40;;;;;;4985328;28;20042;-68
2023/10/29 07:32:14;;;;;;;1.17;0.73;;;11.50;99.60;;;;;;4988243;28;20066;-68
2023/10/29 07:34:39;;;;;;;0.60;0.43;;;11.70;99.20;;;;;;4984397;28;20034;-67
2023/10/29 07:37:05;;;;;;;0.77;0.50;;;11.60;99.20;;;;;;4987026;28;20469;-66
2023/10/29 07:39:30;;;;;;;0.30;0.28;;;11.70;99.00;;;;;;4983861;28;20045;-67
2023/10/29 07:41:56;;;;;;;0.57;0.40;;;11.60;99.00;;;;;;4984648;28;20050;-67
2023/10/29 07:44:24;;;;;;;0.95;0.50;;;11.70;99.00;;;;;;4982985;28;20039;-66
2023/10/29 07:46:49;;;;;;;0.73;0.50;;;11.70;99.10;;;;;;4986801;28;20026;-69
2023/10/29 07:49:15;;;;;;;0.40;0.40;;;11.80;99.00;;;;;;4985104;28;20066;-66
2023/10/29 07:51:40;;;;;;;1.38;0.55;;;11.80;98.90;;;;;;4987874;28;20069;-68
2023/10/29 07:54:06;;;;;;;0.90;0.50;;;11.80;98.70;;;;;;4986306;28;20073;-67
2023/10/29 07:56:32;;;;;;;0.60;0.50;;;11.80;98.60;;;;;;4987357;28;20602;-66
2023/10/29 07:58:57;;;;;;;1.10;0.70;;;11.90;98.20;;;;;;4984382;28;20031;-65
2023/10/29 08:01:23;;;;;;;1.35;0.50;;;12.00;98.00;;;;;;4982111;28;20165;-65
2023/10/29 08:03:50;;;;;;;0.47;0.47;;;11.90;98.00;;;;;;4986087;28;20034;-66
2023/10/29 08:06:15;;;;;;;0.50;0.40;;;11.90;98.30;;;;;;4986664;28;20130;-67
2023/10/29 08:08:41;;;;;;;0.77;0.50;;;12.00;98.10;;;;;;4986338;28;20114;-65
2023/10/29 08:11:16;;;;;;;1.10;0.50;;;12.00;98.30;;;;;;4988436;28;20467;-67
2023/10/29 08:13:43;;;;;;;0.50;0.40;;;11.90;98.20;;;;;;4986049;28;20034;-67
2023/10/29 08:16:08;;;;;;;0.82;0.40;;;12.00;97.90;;;;;;4984280;28;20022;-67
2023/10/29 08:18:34;;;;;;;0.95;0.60;;;12.00;97.80;;;;;;4983159;28;20049;-66
2023/10/29 08:21:00;;;;;;;0.40;0.40;;;11.90;98.00;;;;;;4985936;28;20479;-67
2023/10/29 08:23:26;;;;;;;0.40;0.40;;;11.90;98.20;;;;;;4985439;28;20498;-67
2023/10/29 08:25:52;;;;;;;0.38;0.32;;;11.80;98.10;;;;;;4985807;28;20047;-66
2023/10/29 08:28:19;;;;;;;0.63;0.50;;;11.90;98.10;;;;;;4984206;28;20637;-68
2023/10/29 08:30:47;;;;;;;0.75;0.35;;;12.00;98.00;;;;;;4987223;28;20027;-72
2023/10/29 08:33:13;;;;;;;0.90;0.47;;;11.90;98.10;;;;;;4985146;28;20396;-69
2023/10/29 08:35:46;;;;;;;0.88;0.30;;;12.00;98.10;;;;;;4987171;28;20053;-68
2023/10/29 08:38:12;;;;;;;0.65;0.40;;;12.00;98.10;;;;;;4985867;28;20031;-69
2023/10/29 08:40:38;;;;;;;0.93;0.50;;;12.10;98.00;;;;;;4985686;28;20053;-66
2023/10/29 08:43:07;;;;;;;0.70;0.50;;;12.30;97.70;;;;;;4982749;28;20042;-68
2023/10/29 08:45:33;;;;;;;2.38;0.52;;;12.30;97.40;;;;;;4984602;28;20026;-69
2023/10/29 08:47:59;;;;;;;0.35;0.25;;;12.20;97.40;;;;;;4986844;28;20144;-66
2023/10/29 08:50:24;;;;;;;0.90;0.60;;;12.30;97.00;;;;;;4986029;28;20038;-66
2023/10/29 08:52:50;;;;;;;0.43;0.38;;;12.40;97.60;;;;;;4986061;28;20065;-67
2023/10/29 08:55:15;;;;;;;0.50;0.50;;;12.60;97.60;;;;;;4988215;28;20112;-69
2023/10/29 08:57:41;;;;;;;0.20;0.20;;;12.80;96.50;;;;;;4982628;28;20041;-67
2023/10/29 09:00:07;;;;;;;0.73;0.40;;;12.90;96.30;;;;;;4987086;28;20490;-68
2023/10/29 09:02:32;;;;;;;0.82;0.40;;;13.10;96.00;;;;;;4987488;28;20507;-67
2023/10/29 09:04:58;;;;;;;0.38;0.30;;;13.20;95.20;;;;;;4991422;28;20105;-66
2023/10/29 09:07:25;;;;;;;0.95;0.40;;;13.30;95.80;;;;;;4989419;28;20034;-66
2023/10/29 09:09:50;;;;;;;0.93;0.32;;;13.40;94.50;;;;;;4989474;28;20038;-67
2023/10/29 09:12:16;;;;;;;0.45;0.35;;;13.50;94.30;;;;;;4986980;28;20042;-70
2023/10/29 09:14:41;;;;;;;0.82;0.40;;;13.60;94.20;;;;;;4990281;28;20035;-67
2023/10/29 09:17:07;;;;;;;0.93;0.40;;;13.70;94.50;;;;;;4988046;28;20042;-67
2023/10/29 09:19:33;;;;;;;1.63;0.40;;;13.80;93.90;;;;;;4991298;28;20759;-68
2023/10/29 09:21:59;;;;;;;0.43;0.20;;;13.90;94.80;;;;;;4987924;28;20039;-69
2023/10/29 09:24:24;;;;;;;1.05;0.25;;;14.10;93.60;;;;;;4990256;28;20030;-66
2023/10/29 09:26:50;;;;;;;0.15;0.15;;;14.00;92.50;;;;;;4981416;28;20689;-70
2023/10/29 09:29:16;;;;;;;0.22;0.20;;;14.00;92.80;;;;;;4985869;28;20129;-67
2023/10/29 09:31:42;;;;;;;1.15;0.40;;;14.10;93.40;;;;;;4990403;28;20029;-67
2023/10/29 09:34:08;;;;;;;0.28;0.20;;;14.10;93.20;;;;;;4988716;28;20084;-67
2023/10/29 09:36:33;;;;;;;0.40;0.30;;;14.00;92.80;;;;;;4989739;28;20081;-67
2023/10/29 09:38:58;;;;;;;1.63;0.47;;;14.10;92.50;;;;;;4989958;28;20057;-67
2023/10/29 09:41:24;;;;;;;0.55;0.35;;;14.10;92.00;;;;;;4988129;28;20146;-66
2023/10/29 09:43:53;;;;;;;0.40;0.28;;;14.00;92.80;;;;;;4983801;28;20030;-67
2023/10/29 09:46:20;;;;;;;0.20;0.13;;;14.10;91.80;;;;;;4987139;28;20030;-67
2023/10/29 09:48:48;;;;;;;0.93;0.45;;;14.30;90.90;;;;;;4987085;28;20038;-67
2023/10/29 09:51:15;;;;;;;0.75;0.50;;;14.30;91.90;;;;;;4988222;28;20045;-66
2023/10/29 09:53:40;;;;;;;0.68;0.43;;;14.40;90.10;;;;;;4990734;28;20034;-67
2023/10/29 09:56:08;;;;;;;0.28;0.28;;;14.60;91.60;;;;;;4987919;28;20035;-67
2023/10/29 09:58:34;;;;;;;1.70;0.30;;;14.90;89.80;;;;;;4984111;28;20232;-67
2023/10/29 10:01:01;;;;;;;1.08;0.30;;;15.10;89.50;;;;;;4981101;28;20034;-66
2023/10/29 10:03:27;;;;;;;0.90;0.30;;;15.40;88.00;;;;;;4984747;28;20022;-67
2023/10/29 10:05:54;;;;;;;1.63;0.40;;;15.40;88.00;;;;;;4986617;28;20030;-67
2023/10/29 10:08:28;;;;;;;0.25;0.20;;;15.20;88.30;;;;;;4988766;28;20034;-67
2023/10/29 10:10:55;;;;;;;0.47;0.30;;;15.20;88.80;;;;;;4988592;28;20041;-67
2023/10/29 10:13:41;;;;;;;0.40;0.30;;;15.10;88.70;;;;;;4979866;28;20035;-66
2023/10/29 10:16:11;;;;;;;0.52;0.32;;;15.00;88.30;;;;;;4988864;28;20027;-68
2023/10/29 10:18:57;;;;;;;0.30;0.22;;;14.90;88.70;;;;;;4989002;28;20030;-67
2023/10/29 10:21:25;;;;;;;0.10;0.10;;;15.00;89.70;;;;;;4988656;28;20370;-66
2023/10/29 10:23:55;;;;;;;0.80;0.30;;;14.80;88.60;;;;;;4988318;28;20456;-66
2023/10/29 10:26:33;;;;;;;1.38;0.30;;;14.60;89.20;;;;;;4989985;28;20070;-69
2023/10/29 10:28:59;;;;;;;0.28;0.20;;;14.60;89.00;;;;;;4984560;28;20035;-66
2023/10/29 10:31:28;;;;;;;0.15;0.15;;;14.70;88.90;;;;;;4989179;28;20410;-66
2023/10/29 10:34:31;;;;;;;0.10;0.10;;;14.90;88.90;;;;;;4982981;28;20034;-67
2023/10/29 10:37:04;;;;;;;0.82;0.20;;;15.00;88.00;;;;;;4988695;28;20046;-66
2023/10/29 10:39:31;;;;;;;0.20;0.20;;;15.10;86.10;;;;;;4988447;28;20046;-66
2023/10/29 10:42:00;;;;;;;0.68;0.40;;;15.20;86.10;;;;;;4986892;28;20061;-68
2023/10/29 10:44:27;;;;;;;0.30;0.25;;;15.40;85.30;;;;;;4985911;28;20069;-67
2023/10/29 10:46:56;;;;;;;1.13;0.50;;;15.70;83.60;;;;;;4988986;28;20033;-67
2023/10/29 10:49:22;;;;;;;0.40;0.22;;;15.60;83.00;;;;;;4986706;28;20054;-66
2023/10/29 10:51:52;;;;;;;1.83;0.65;;;15.70;84.00;;;;;;4988216;28;20054;-67
2023/10/29 10:54:18;;;;;;;0.90;0.28;;;15.80;81.90;;;;;;4986143;28;20393;-69
2023/10/29 10:56:44;;;;;;;0.50;0.32;;;15.90;80.40;;;;;;4989952;28;20031;-67
2023/10/29 10:59:10;;;;;;;0.45;0.20;;;15.80;81.20;;;;;;4986414;28;20026;-66
2023/10/29 11:01:38;;;;;;;1.00;0.30;;;15.80;80.30;;;;;;4987266;28;20042;-67
2023/10/29 11:04:07;;;;;;;0.63;0.30;;;16.00;80.50;;;;;;4986532;28;20403;-66
2023/10/29 11:06:36;;;;;;;0.52;0.10;;;15.70;80.90;;;;;;4988257;28;20395;-65
2023/10/29 11:09:05;;;;;;;0.52;0.20;;;15.30;81.10;;;;;;4986320;28;20046;-66
2023/10/29 11:11:38;;;;;;;0.52;0.32;;;15.00;82.80;;;;;;4989464;28;20069;-66
2023/10/29 11:14:11;;;;;;;0.85;0.40;;;14.80;83.70;;;;;;4986034;28;20105;-66
2023/10/29 11:16:56;;;;;;;1.55;0.30;;;14.70;83.50;;;;;;4988742;28;20352;-66
2023/10/29 11:19:39;;;;;;;1.02;0.30;;;14.70;83.70;;;;;;4984773;28;20480;-66
2023/10/29 11:22:22;;;;;;;0.55;0.30;;;14.60;84.90;;;;;;4986479;28;20116;-67
2023/10/29 11:25:09;;;;;;;0.40;0.15;;;14.50;85.30;;;;;;4982695;28;20391;-66
2023/10/29 11:27:40;;;;;;;0.47;0.20;;;14.80;86.00;;;;;;4984084;28;20030;-65
2023/10/29 11:30:23;;;;;;;0.65;0.22;;;14.80;84.50;;;;;;4987868;28;20049;-67
2023/10/29 11:33:10;;;;;;;1.45;0.30;;;14.90;83.50;;;;;;4985026;28;20026;-65
2023/10/29 11:35:36;;;;;;;0.40;0.30;;;14.80;83.10;;;;;;4984617;28;20076;-67
2023/10/29 11:38:34;;;;;;;0.82;0.30;;;15.20;82.90;;;;;;4988343;28;20026;-66
2023/10/29 11:41:19;;;;;;;1.63;0.40;;;15.80;82.40;;;;;;4985849;28;20034;-67
2023/10/29 11:43:45;;;;;;;0.95;0.38;;;16.40;80.50;;;;;;4979745;28;20513;-67
2023/10/29 11:46:10;;;;;;;4.85;0.35;;;16.60;79.10;;;;;;4985355;28;20030;-67
2023/10/29 11:49:02;;;;;;;1.35;0.25;;;16.80;77.20;;;;;;4985394;28;20038;-67
2023/10/29 11:51:28;;;;;;;1.23;0.32;;;16.50;77.80;;;;;;4987345;28;20430;-69
2023/10/29 11:53:53;;;;;;;0.10;0.10;;;16.10;79.20;;;;;;4982407;28;20034;-69
2023/10/29 11:56:24;;;;;;;0.22;0.10;;;16.20;80.20;;;;;;4989541;28;20072;-66
2023/10/29 11:59:02;;;;;;;1.83;0.20;;;15.90;80.10;;;;;;4980225;28;20038;-66
2023/10/29 12:01:28;;;;;;;1.60;0.15;;;15.60;80.60;;;;;;4981416;28;20117;-66
2023/10/29 12:03:55;;;;;;;0.13;0.10;;;15.60;81.50;;;;;;4988783;28;20031;-66
2023/10/29 12:06:20;;;;;;;0.57;0.03;;;15.50;82.40;;;;;;4985420;28;20924;-66
2023/10/29 12:08:46;;;;;;;0.38;0.20;;;15.40;81.40;;;;;;4989385;28;20034;-67
2023/10/29 12:11:13;;;;;;;0.95;0.32;;;15.30;81.50;;;;;;4988096;28;20057;-66
2023/10/29 12:13:40;;;;;;;4.55;0.47;;;15.50;82.10;;;;;;4984681;28;20479;-67
2023/10/29 12:16:07;;;;;;;0.32;0.13;;;15.50;81.20;;;;;;4987867;28;20061;-67
2023/10/29 12:18:33;;;;;;;0.43;0.25;;;15.50;81.70;;;;;;4987835;28;20129;-67
2023/10/29 12:21:06;;;;;;;1.17;0.10;;;15.50;81.00;;;;;;4986108;28;20105;-66
2023/10/29 12:23:33;;;;;;;1.75;0.40;;;15.60;80.70;;;;;;4985018;28;20149;-66
2023/10/29 12:26:04;;;;;;;1.45;0.43;;;15.60;80.00;;;;;;4990030;28;20495;-65
2023/10/29 12:28:30;;;;;;;;;;;15.60;78.50;;;;;;4994072;28;20347;-66
2023/10/29 12:30:57;;;;;;;0.85;0.30;;;15.50;78.00;;;;;;4990932;28;19921;-66
2023/10/29 12:33:29;;;;;;;1.02;0.30;;;15.50;79.20;;;;;;4987514;28;20360;-66
2023/10/29 12:35:56;;;;;;;0.60;0.32;;;15.60;79.30;;;;;;4992058;28;20023;-69
2023/10/29 12:38:22;;;;;;;0.40;0.30;;;15.70;79.50;;;;;;4989667;28;20033;-68
2023/10/29 12:41:14;;;;;;;0.32;0.20;;;16.00;78.90;;;;;;4991360;28;20378;-67
2023/10/29 12:43:44;;;;;;;0.95;0.20;;;16.10;77.90;;;;;;4988008;28;20475;-67
2023/10/29 12:46:12;;;;;;;0.20;0.20;;;16.30;76.60;;;;;;4990638;28;20030;-68
2023/10/29 12:49:02;;;;;;;1.80;0.60;;;16.40;76.20;;;;;;4992199;28;20506;-66
2023/10/29 12:51:37;;;;;;;0.10;0.10;;;16.60;75.30;;;;;;4984122;28;20394;-66